createdAt,value
2022-12-14T00:02:01.344Z,-0.37
2022-12-14T00:04:29.267Z,-0.29
2022-12-14T00:06:57.120Z,-0.36
2022-12-14T00:09:25.304Z,-0.42
2022-12-14T00:11:53.138Z,-0.53
2022-12-14T00:14:21.131Z,-0.54
2022-12-14T00:16:50.403Z,-0.53
2022-12-14T00:19:18.347Z,-0.52
2022-12-14T00:21:46.620Z,-0.48
2022-12-14T00:24:14.511Z,-0.46
2022-12-14T00:26:42.381Z,-0.41
2022-12-14T00:29:10.250Z,-0.46
2022-12-14T00:31:38.346Z,-0.48
2022-12-14T00:34:07.701Z,-0.63
2022-12-14T00:36:37.628Z,-0.56
2022-12-14T00:39:06.161Z,-0.58
2022-12-14T00:41:36.376Z,-0.61
2022-12-14T00:44:04.385Z,-0.98
2022-12-14T00:46:32.332Z,-0.79
2022-12-14T00:49:00.453Z,-0.48
2022-12-14T00:51:29.778Z,-0.47
2022-12-14T00:53:57.737Z,-0.51
2022-12-14T00:56:25.624Z,-0.46
2022-12-14T00:58:54.015Z,-0.55
2022-12-14T01:01:22.409Z,-0.40
2022-12-14T01:03:51.186Z,-0.40
2022-12-14T01:06:21.646Z,-0.29
2022-12-14T01:08:51.181Z,-0.23
2022-12-14T01:11:21.667Z,-0.18
2022-12-14T01:13:49.844Z,-0.09
2022-12-14T01:16:18.209Z,-0.06
2022-12-14T01:18:46.294Z,-0.04
2022-12-14T01:21:16.719Z,-0.16
2022-12-14T01:23:45.610Z,-0.06
2022-12-14T01:26:16.271Z,-0.74
2022-12-14T01:28:45.800Z,-0.72
2022-12-14T01:31:18.641Z,-0.77
2022-12-14T01:33:47.151Z,-0.59
2022-12-14T01:36:17.117Z,-0.34
2022-12-14T01:38:45.476Z,-0.54
2022-12-14T01:41:23.232Z,-0.65
2022-12-14T01:43:53.153Z,-0.44
2022-12-14T01:46:27.181Z,-0.33
2022-12-14T01:49:01.546Z,-0.19
2022-12-14T01:51:31.170Z,-0.30
2022-12-14T01:54:02.881Z,-0.22
2022-12-14T01:56:35.749Z,-0.06
2022-12-14T01:59:09.027Z,-0.08
2022-12-14T02:01:37.484Z,-0.08
2022-12-14T02:04:06.190Z,-0.29
2022-12-14T02:06:36.429Z,-0.63
2022-12-14T02:09:05.809Z,-0.72
2022-12-14T02:11:45.223Z,-0.70
2022-12-14T02:14:13.350Z,-0.53
2022-12-14T02:16:42.303Z,-0.24
2022-12-14T02:19:10.425Z,-0.15
2022-12-14T02:21:59.794Z,-0.07
2022-12-14T02:24:57.854Z,-0.45
2022-12-14T02:27:56.752Z,-0.24
2022-12-14T02:30:28.354Z,-0.62
2022-12-14T02:33:10.720Z,-0.49
2022-12-14T02:35:46.172Z,-0.35
2022-12-14T02:38:31.169Z,-0.10
2022-12-14T02:41:08.564Z,-0.23
2022-12-14T02:43:51.025Z,-0.26
2022-12-14T02:46:29.591Z,-0.23
2022-12-14T02:49:04.679Z,-0.34
2022-12-14T02:51:46.103Z,-0.16
2022-12-14T02:54:20.963Z,-0.34
2022-12-14T02:56:53.247Z,-0.19
2022-12-14T02:59:22.551Z,-0.09
2022-12-14T03:01:53.690Z,-0.19
2022-12-14T03:04:21.808Z,-0.22
2022-12-14T03:07:00.432Z,-0.11
2022-12-14T03:09:30.865Z,-0.28
2022-12-14T03:12:03.975Z,-0.07
2022-12-14T03:14:36.000Z,-0.17
2022-12-14T03:17:15.191Z,-0.16
2022-12-14T03:19:50.088Z,-0.11
2022-12-14T03:22:22.625Z,-0.45
2022-12-14T03:24:55.495Z,-0.69
2022-12-14T03:27:31.248Z,-0.37
2022-12-14T03:30:01.873Z,-0.15
2022-12-14T03:32:33.345Z,0.06
2022-12-14T03:35:04.679Z,-0.01
2022-12-14T03:37:40.786Z,-0.06
2022-12-14T03:40:12.351Z,-0.20
2022-12-14T03:42:49.418Z,-0.12
2022-12-14T03:45:21.613Z,-0.04
2022-12-14T03:48:01.183Z,-0.15
2022-12-14T03:50:36.041Z,-0.01
2022-12-14T03:53:10.989Z,-0.06
2022-12-14T03:55:49.589Z,-0.34
2022-12-14T03:58:31.362Z,-0.05
2022-12-14T04:01:06.026Z,-0.19
2022-12-14T04:03:46.572Z,0.11
2022-12-14T04:06:26.637Z,0.08
2022-12-14T04:09:03.723Z,0.24
2022-12-14T04:11:54.092Z,0.21
2022-12-14T04:14:43.718Z,0.03
2022-12-14T04:17:32.770Z,0.06
2022-12-14T04:20:07.007Z,0.04
2022-12-14T04:22:42.729Z,0.07
2022-12-14T04:25:33.660Z,-0.10
2022-12-14T04:28:06.832Z,-0.04
2022-12-14T04:30:39.033Z,-0.12
2022-12-14T04:33:24.524Z,-0.11
2022-12-14T04:35:57.074Z,0.03
2022-12-14T04:38:28.722Z,0.18
2022-12-14T04:40:59.918Z,0.19
2022-12-14T04:43:31.051Z,-0.09
2022-12-14T04:46:03.250Z,0.10
2022-12-14T04:48:38.877Z,0.33
2022-12-14T04:51:13.393Z,0.34
2022-12-14T04:53:45.617Z,0.38
2022-12-14T04:56:20.520Z,0.17
2022-12-14T04:58:48.517Z,0.01
2022-12-14T05:01:31.248Z,0.20
2022-12-14T05:04:09.615Z,-0.08
2022-12-14T05:06:49.911Z,0.09
2022-12-14T05:09:25.021Z,0.20
2022-12-14T05:11:57.581Z,0.02
2022-12-14T05:14:37.609Z,-0.28
2022-12-14T05:17:09.116Z,0.11
2022-12-14T05:19:37.763Z,0.11
2022-12-14T05:22:09.371Z,0.02
2022-12-14T05:24:37.354Z,-0.30
2022-12-14T05:27:05.394Z,-0.40
2022-12-14T05:29:33.420Z,-0.50
2022-12-14T05:32:01.944Z,-0.21
2022-12-14T05:34:30.768Z,0.01
2022-12-14T05:36:59.229Z,-0.16
2022-12-14T05:39:30.901Z,-0.13
2022-12-14T05:42:02.142Z,-0.11
2022-12-14T05:44:35.845Z,-0.22
2022-12-14T05:47:03.778Z,-0.37
2022-12-14T05:54:12.281Z,0.11
2022-12-14T05:56:41.560Z,0.19
2022-12-14T05:59:13.339Z,0.18
2022-12-14T06:01:41.276Z,0.12
2022-12-14T06:04:09.689Z,-0.10
2022-12-14T06:06:50.270Z,-0.53
2022-12-14T06:09:43.688Z,-0.36
2022-12-14T06:12:17.329Z,-0.44
2022-12-14T06:14:45.203Z,-0.85
2022-12-14T06:17:13.166Z,-0.45
2022-12-14T06:19:49.917Z,-0.30
2022-12-14T06:22:18.893Z,-0.01
2022-12-14T06:24:46.915Z,-0.02
2022-12-14T06:27:14.870Z,-0.16
2022-12-14T06:29:46.603Z,-0.22
2022-12-14T06:32:38.056Z,-0.23
2022-12-14T06:35:07.033Z,0.15
2022-12-14T06:37:34.838Z,0.21
2022-12-14T06:40:03.240Z,0.27
2022-12-14T06:42:31.101Z,0.24
2022-12-14T06:45:00.360Z,0.31
2022-12-14T06:47:28.413Z,0.26
2022-12-14T06:50:02.490Z,-0.26
2022-12-14T06:52:30.294Z,-0.12
2022-12-14T06:54:58.127Z,-0.01
2022-12-14T06:57:26.020Z,-0.10
2022-12-14T06:59:54.924Z,0.04
2022-12-14T07:02:24.248Z,0.05
2022-12-14T07:04:52.275Z,-0.18
2022-12-14T07:07:22.895Z,-0.09
2022-12-14T07:09:51.265Z,0.05
2022-12-14T07:12:19.139Z,0.15
2022-12-14T07:14:49.633Z,0.16
2022-12-14T07:17:28.803Z,-0.33
2022-12-14T07:19:56.706Z,0.07
2022-12-14T07:22:25.355Z,-0.29
2022-12-14T07:24:54.853Z,-0.05
2022-12-14T07:27:25.761Z,-0.20
2022-12-14T07:29:54.173Z,0.03
2022-12-14T07:32:22.006Z,0.03
2022-12-14T07:34:51.176Z,0.14
2022-12-14T07:37:19.032Z,0.12
2022-12-14T07:39:46.985Z,0.37
2022-12-14T07:42:14.849Z,0.38
2022-12-14T07:44:50.756Z,0.48
2022-12-14T07:47:20.239Z,0.47
2022-12-14T07:49:48.368Z,0.53
2022-12-14T07:52:19.379Z,0.46
2022-12-14T07:54:47.307Z,0.36
2022-12-14T07:57:17.483Z,0.40
2022-12-14T07:59:47.392Z,0.48
2022-12-14T08:02:18.060Z,0.14
2022-12-14T08:04:46.552Z,0.33
2022-12-14T08:07:14.461Z,-0.04
2022-12-14T08:09:43.818Z,-0.02
2022-12-14T08:12:13.480Z,0.00
2022-12-14T08:14:41.746Z,0.25
2022-12-14T08:17:11.937Z,0.44
2022-12-14T08:19:39.970Z,0.53
2022-12-14T08:22:08.222Z,0.37
2022-12-14T08:24:39.720Z,0.24
2022-12-14T08:27:09.582Z,0.01
2022-12-14T08:29:37.745Z,-0.15
2022-12-14T08:32:06.401Z,-0.06
2022-12-14T08:34:37.838Z,0.00
2022-12-14T08:37:18.214Z,-0.19
2022-12-14T08:40:51.440Z,-0.04
2022-12-14T08:43:47.660Z,0.21
2022-12-14T08:46:15.545Z,0.38
2022-12-14T08:48:43.579Z,0.61
2022-12-14T08:51:18.214Z,0.51
2022-12-14T08:53:48.671Z,0.57
2022-12-14T08:56:18.737Z,-0.03
2022-12-14T08:58:48.522Z,0.44
2022-12-14T09:01:20.923Z,0.16
2022-12-14T09:03:49.554Z,0.62
2022-12-14T09:06:20.079Z,0.02
2022-12-14T09:09:22.742Z,0.46
2022-12-14T09:11:58.256Z,-0.10
2022-12-14T09:14:27.536Z,0.51
2022-12-14T09:16:58.401Z,0.63
2022-12-14T09:19:45.781Z,0.56
2022-12-14T09:22:29.767Z,0.91
2022-12-14T09:25:45.973Z,0.83
2022-12-14T09:28:17.452Z,0.87
2022-12-14T09:31:25.957Z,0.51
2022-12-14T09:34:02.191Z,0.70
2022-12-14T09:36:30.089Z,0.60
2022-12-14T09:38:59.533Z,0.84
2022-12-14T09:41:50.927Z,0.92
2022-12-14T09:44:27.934Z,0.97
2022-12-14T09:47:20.459Z,0.95
2022-12-14T09:49:56.107Z,0.87
2022-12-14T09:52:30.867Z,0.92
2022-12-14T09:54:59.919Z,0.91
2022-12-14T09:57:38.838Z,0.70
2022-12-14T10:00:23.079Z,0.68
2022-12-14T10:03:35.425Z,0.16
2022-12-14T10:06:44.728Z,0.12
2022-12-14T10:09:44.715Z,-0.28
2022-12-14T10:12:34.042Z,-0.16
2022-12-14T10:15:15.807Z,0.23
2022-12-14T10:18:33.890Z,0.09
2022-12-14T10:21:06.442Z,0.24
2022-12-14T10:23:36.668Z,-0.16
2022-12-14T10:26:08.983Z,0.28
2022-12-14T10:28:46.695Z,0.43
2022-12-14T10:31:18.466Z,0.28
2022-12-14T10:33:47.985Z,0.45
2022-12-14T10:36:24.348Z,0.73
2022-12-14T10:38:59.631Z,0.97
2022-12-14T10:41:39.582Z,0.86
2022-12-14T10:44:18.787Z,1.10
2022-12-14T10:46:59.230Z,1.12
2022-12-14T10:49:34.385Z,1.33
2022-12-14T10:52:05.236Z,1.41
2022-12-14T10:54:40.112Z,1.43
2022-12-14T10:57:08.229Z,1.40
2022-12-14T10:59:55.590Z,1.50
2022-12-14T11:02:39.248Z,1.70
2022-12-14T11:05:31.092Z,1.68
2022-12-14T11:08:02.253Z,1.16
2022-12-14T11:10:34.708Z,1.51
2022-12-14T11:13:05.770Z,1.71
2022-12-14T11:15:36.980Z,1.42
2022-12-14T11:18:09.250Z,1.12
2022-12-14T11:20:37.254Z,0.71
2022-12-14T11:23:10.407Z,0.86
2022-12-14T11:25:43.570Z,0.76
2022-12-14T11:28:36.162Z,0.99
2022-12-14T11:31:07.237Z,1.27
2022-12-14T11:33:39.264Z,1.04
2022-12-14T11:36:08.589Z,1.33
2022-12-14T11:38:36.920Z,1.15
2022-12-14T11:41:11.596Z,1.10
2022-12-14T11:43:40.246Z,1.46
2022-12-14T11:46:08.802Z,1.52
2022-12-14T11:48:50.993Z,0.98
2022-12-14T11:51:19.072Z,1.09
2022-12-14T11:54:02.600Z,1.17
2022-12-14T11:56:32.035Z,0.76
2022-12-14T11:59:00.081Z,0.65
2022-12-14T12:01:28.327Z,0.79
2022-12-14T12:03:59.411Z,0.52
2022-12-14T12:06:30.236Z,0.95
2022-12-14T12:09:01.629Z,0.95
2022-12-14T12:11:34.635Z,0.90
2022-12-14T12:14:07.832Z,1.16
2022-12-14T12:16:40.215Z,1.64
2022-12-14T12:19:13.511Z,1.71
2022-12-14T12:21:45.079Z,1.45
2022-12-14T12:24:21.727Z,1.75
2022-12-14T12:26:53.141Z,1.93
2022-12-14T12:29:26.848Z,1.79
2022-12-14T12:31:59.748Z,1.37
2022-12-14T12:34:32.214Z,1.70
2022-12-14T12:40:02.761Z,1.24
2022-12-14T12:42:42.960Z,1.54
2022-12-14T12:45:21.730Z,1.94
2022-12-14T12:47:56.889Z,2.23
2022-12-14T12:50:29.876Z,1.83
2022-12-14T12:53:03.946Z,1.80
2022-12-14T12:55:37.827Z,1.94
2022-12-14T12:58:14.666Z,2.00
2022-12-14T13:00:49.421Z,1.82
2022-12-14T13:03:24.432Z,1.89
2022-12-14T13:05:55.533Z,1.70
2022-12-14T13:08:31.364Z,1.72
2022-12-14T13:11:25.122Z,1.54
2022-12-14T13:13:56.776Z,1.20
2022-12-14T13:16:34.588Z,1.61
2022-12-14T13:19:49.621Z,1.51
2022-12-14T13:22:28.844Z,1.19
2022-12-14T13:25:07.493Z,0.97
2022-12-14T13:28:09.661Z,0.93
2022-12-14T13:31:07.618Z,0.98
2022-12-14T13:33:58.283Z,0.96
2022-12-14T13:37:14.324Z,1.21
2022-12-14T13:40:00.010Z,0.82
2022-12-14T13:42:52.029Z,0.88
2022-12-14T13:45:49.681Z,0.99
2022-12-14T13:48:42.835Z,0.84
2022-12-14T13:52:14.828Z,0.48
2022-12-14T13:54:48.063Z,0.56
2022-12-14T13:57:26.240Z,0.40
2022-12-14T14:03:55.345Z,0.57
2022-12-14T14:06:41.738Z,0.45
2022-12-14T14:09:50.305Z,0.74
2022-12-14T14:12:39.078Z,0.48
2022-12-14T14:16:26.264Z,0.66
2022-12-14T14:19:17.676Z,0.76
2022-12-14T14:22:25.125Z,0.97
2022-12-14T14:24:59.456Z,1.01
2022-12-14T14:27:38.634Z,0.87
2022-12-14T14:30:25.855Z,1.03
2022-12-14T14:33:07.519Z,0.45
2022-12-14T14:35:42.932Z,0.64
2022-12-14T14:38:24.501Z,0.84
2022-12-14T14:43:55.774Z,0.49
2022-12-14T14:46:35.665Z,0.64
2022-12-14T14:49:05.075Z,0.45
2022-12-14T14:51:37.513Z,0.32
2022-12-14T15:01:45.795Z,0.42
2022-12-14T15:04:41.573Z,0.85
2022-12-14T15:07:16.560Z,0.85
2022-12-14T15:09:49.125Z,0.72
2022-12-14T15:12:29.865Z,0.90
2022-12-14T15:15:02.313Z,0.76
2022-12-14T15:17:30.282Z,0.88
2022-12-14T15:20:00.106Z,0.59
2022-12-14T15:22:32.211Z,0.48
2022-12-14T15:25:01.978Z,0.54
2022-12-14T15:27:35.173Z,0.64
2022-12-14T15:30:07.048Z,0.72
2022-12-14T15:32:35.077Z,0.45
2022-12-14T15:35:05.837Z,0.64
2022-12-14T15:37:41.781Z,0.68
2022-12-14T15:40:15.159Z,0.41
2022-12-14T15:42:48.079Z,0.47
2022-12-14T15:45:18.956Z,0.41
2022-12-14T15:47:50.005Z,0.47
2022-12-14T15:50:23.710Z,0.75
2022-12-14T15:52:56.535Z,0.68
2022-12-14T15:55:31.003Z,0.55
2022-12-14T15:58:01.448Z,0.33
2022-12-14T16:00:29.635Z,0.21
2022-12-14T16:02:58.082Z,0.36
2022-12-14T16:05:26.494Z,0.60
2022-12-14T16:08:04.456Z,0.18
2022-12-14T16:10:33.913Z,0.54
2022-12-14T16:13:10.634Z,0.61
2022-12-14T16:15:38.705Z,0.79
2022-12-14T16:18:06.838Z,0.72
2022-12-14T16:20:38.326Z,0.36
2022-12-14T16:23:27.719Z,0.33
2022-12-14T16:25:59.369Z,0.33
2022-12-14T16:28:31.229Z,0.31
2022-12-14T16:31:02.711Z,0.53
2022-12-14T16:33:41.024Z,0.71
2022-12-14T16:36:16.033Z,0.70
2022-12-14T16:39:02.141Z,0.75
2022-12-14T16:41:36.335Z,0.73
2022-12-14T16:44:06.822Z,0.59
2022-12-14T16:46:49.719Z,0.45
2022-12-14T16:49:42.807Z,0.53
2022-12-14T16:52:21.057Z,0.84
2022-12-14T16:55:09.733Z,0.96
2022-12-14T16:57:41.065Z,0.59
2022-12-14T17:00:23.242Z,0.52
2022-12-14T17:02:57.801Z,0.71
2022-12-14T17:05:29.932Z,0.94
2022-12-14T17:07:57.908Z,0.83
2022-12-14T17:10:28.276Z,0.66
2022-12-14T17:12:57.631Z,0.33
2022-12-14T17:15:27.422Z,0.51
2022-12-14T17:17:57.756Z,0.48
2022-12-14T17:20:30.108Z,0.62
2022-12-14T17:23:01.834Z,0.71
2022-12-14T17:25:33.231Z,0.62
2022-12-14T17:28:01.775Z,0.80
2022-12-14T17:30:29.889Z,0.74
2022-12-14T17:32:58.891Z,0.84
2022-12-14T17:35:29.700Z,0.71
2022-12-14T17:37:58.149Z,0.67
2022-12-14T17:40:28.960Z,0.82
2022-12-14T17:42:59.474Z,0.72
2022-12-14T17:45:31.110Z,0.82
2022-12-14T17:47:59.354Z,0.86
2022-12-14T17:50:27.310Z,0.82
2022-12-14T17:52:55.299Z,0.91
2022-12-14T17:55:25.652Z,0.82
2022-12-14T17:57:54.265Z,0.84
2022-12-14T18:00:43.419Z,0.87
2022-12-14T18:03:12.844Z,0.85
2022-12-14T18:05:48.032Z,0.85
2022-12-14T18:08:16.852Z,0.83
2022-12-14T18:10:45.252Z,0.92
2022-12-14T18:13:14.104Z,0.83
2022-12-14T18:15:49.668Z,0.89
2022-12-14T18:18:18.486Z,0.50
2022-12-14T18:20:50.596Z,0.33
2022-12-14T18:23:19.340Z,0.20
2022-12-14T18:25:49.121Z,0.52
2022-12-14T18:28:17.393Z,0.50
2022-12-14T18:30:50.750Z,0.45
2022-12-14T18:33:21.017Z,0.42
2022-12-14T18:35:50.261Z,0.59
2022-12-14T18:38:18.321Z,0.79
2022-12-14T18:40:49.675Z,0.83
2022-12-14T18:43:20.368Z,0.77
2022-12-14T18:45:51.343Z,0.50
2022-12-14T18:48:19.602Z,0.66
2022-12-14T18:50:50.571Z,0.30
2022-12-14T18:53:20.865Z,0.24
2022-12-14T18:55:49.741Z,0.65
2022-12-14T18:58:20.220Z,0.54
2022-12-14T19:00:52.224Z,0.43
2022-12-14T19:03:20.729Z,0.47
2022-12-14T19:05:49.035Z,0.35
2022-12-14T19:08:19.205Z,0.51
2022-12-14T19:10:48.863Z,0.43
2022-12-14T19:13:25.766Z,0.55
2022-12-14T19:15:55.873Z,0.65
2022-12-14T19:18:23.879Z,0.15
2022-12-14T19:20:51.725Z,0.35
2022-12-14T19:23:21.903Z,0.28
2022-12-14T19:25:49.889Z,0.24
2022-12-14T19:28:32.144Z,-0.10
2022-12-14T19:31:05.296Z,0.20
2022-12-14T19:33:33.857Z,0.37
2022-12-14T19:36:05.921Z,0.16
2022-12-14T19:38:35.669Z,0.31
2022-12-14T19:41:06.342Z,0.23
2022-12-14T19:43:35.544Z,0.42
2022-12-14T19:46:09.160Z,0.34
2022-12-14T19:48:37.875Z,0.16
2022-12-14T19:51:06.910Z,0.01
2022-12-14T19:53:36.052Z,0.18
2022-12-14T19:56:05.725Z,0.34
2022-12-14T19:58:34.060Z,0.30
2022-12-14T20:01:03.073Z,0.42
2022-12-14T20:03:33.001Z,0.28
2022-12-14T20:06:01.214Z,0.40
2022-12-14T20:08:32.605Z,0.09
2022-12-14T20:11:05.655Z,0.31
2022-12-14T20:13:36.156Z,0.45
2022-12-14T20:16:04.332Z,0.28
2022-12-14T20:18:33.765Z,0.39
2022-12-14T20:21:03.427Z,0.44
2022-12-14T20:23:33.612Z,0.47
2022-12-14T20:26:02.206Z,0.57
2022-12-14T20:28:30.694Z,0.67
2022-12-14T20:30:58.638Z,0.56
2022-12-14T20:33:30.538Z,0.52
2022-12-14T20:36:00.338Z,0.50
2022-12-14T20:38:28.682Z,0.59
2022-12-14T20:40:56.627Z,0.52
2022-12-14T20:43:24.551Z,0.57
2022-12-14T20:45:54.827Z,0.70
2022-12-14T20:48:22.733Z,0.62
2022-12-14T20:50:54.983Z,0.71
2022-12-14T20:53:27.325Z,0.68
2022-12-14T20:55:55.288Z,0.70
2022-12-14T20:58:23.598Z,0.78
2022-12-14T21:00:51.551Z,0.63
2022-12-14T21:03:19.590Z,0.67
2022-12-14T21:05:47.623Z,0.73
2022-12-14T21:08:15.762Z,0.66
2022-12-14T21:10:44.969Z,0.74
2022-12-14T21:13:11.840Z,0.74
2022-12-14T21:15:39.833Z,0.76
2022-12-14T21:18:07.704Z,0.75
2022-12-14T21:20:35.685Z,0.71
2022-12-14T21:23:03.572Z,0.42
2022-12-14T21:25:31.455Z,0.49
2022-12-14T21:28:00.778Z,0.21
2022-12-14T21:30:28.800Z,0.37
2022-12-14T21:32:56.730Z,0.51
2022-12-14T21:35:24.773Z,0.51
2022-12-14T21:37:52.537Z,0.49
2022-12-14T21:40:34.295Z,0.41
2022-12-14T21:43:04.631Z,0.15
2022-12-14T21:45:32.742Z,0.24
2022-12-14T21:48:00.601Z,0.40
2022-12-14T21:50:28.524Z,0.40
2022-12-14T21:52:56.464Z,0.38
2022-12-14T21:55:24.495Z,0.38
2022-12-14T21:58:09.662Z,0.33
2022-12-14T22:00:39.964Z,0.16
2022-12-14T22:03:08.176Z,0.11
2022-12-14T22:05:38.845Z,0.30
2022-12-14T22:08:06.854Z,0.44
2022-12-14T22:10:34.809Z,0.51
2022-12-14T22:13:02.780Z,0.41
2022-12-14T22:15:30.648Z,0.43
2022-12-14T22:18:00.093Z,0.44
2022-12-14T22:20:27.986Z,0.27
2022-12-14T22:22:56.103Z,0.28
2022-12-14T22:25:23.992Z,0.32
2022-12-14T22:27:54.067Z,0.33
2022-12-14T22:30:23.279Z,0.38
2022-12-14T22:32:53.884Z,0.41
2022-12-14T22:35:23.146Z,0.35
2022-12-14T22:37:51.036Z,0.30
2022-12-14T22:40:18.894Z,0.37
2022-12-14T22:42:46.679Z,0.44
2022-12-14T22:45:14.748Z,0.52
2022-12-14T22:47:42.644Z,0.54
2022-12-14T22:50:13.014Z,0.33
2022-12-14T22:52:42.352Z,0.38
2022-12-14T22:55:11.284Z,0.40
2022-12-14T22:57:44.312Z,0.36
2022-12-14T23:00:16.717Z,0.49
2022-12-14T23:02:48.292Z,0.32
2022-12-14T23:05:17.568Z,0.31
2022-12-14T23:07:47.451Z,0.36
2022-12-14T23:10:33.273Z,0.14
2022-12-14T23:13:18.625Z,0.40
2022-12-14T23:16:04.016Z,0.36
2022-12-14T23:18:49.488Z,0.40
2022-12-14T23:21:35.313Z,-0.01
2022-12-14T23:24:22.690Z,-0.16
2022-12-14T23:27:09.885Z,-0.04
2022-12-14T23:29:55.938Z,-0.15
2022-12-14T23:32:41.813Z,-0.12
2022-12-14T23:35:27.648Z,0.06
2022-12-14T23:38:13.150Z,0.12
2022-12-14T23:40:59.779Z,0.32
2022-12-14T23:43:45.100Z,0.31
2022-12-14T23:46:33.608Z,0.42
2022-12-14T23:49:18.847Z,0.51
2022-12-14T23:52:04.568Z,0.52
2022-12-14T23:54:50.391Z,0.26
2022-12-14T23:57:37.135Z,0.04
